Time;durP1;ratioP1;P1;durP2;ratioP2;P2;SDS_P1;SDS_P2;PMS_P1;PMS_P2;Temp;Humidity;BMP_temperature;BMP_pressure;BME280_temperature;BME280_humidity;BME280_pressure;Samples;Min_cycle;Max_cycle;Signal;HPM_P1;HPM_P2
2023/10/17 00:02:26;;;;;;;5.85;2.35;;;11.40;99.90;;;;;;1904904;75;21149;-86
2023/10/17 00:05:20;;;;;;;2.67;1.65;;;11.30;99.90;;;;;;1904910;75;21099;-87
2023/10/17 00:08:13;;;;;;;3.12;2.00;;;11.20;99.90;;;;;;1904835;75;21094;-86
2023/10/17 00:11:12;;;;;;;3.55;1.90;;;11.20;99.90;;;;;;1904679;75;21148;-86
2023/10/17 00:14:07;;;;;;;3.10;1.87;;;11.10;99.90;;;;;;1904792;75;21115;-87
2023/10/17 00:16:55;;;;;;;2.83;1.77;;;11.20;99.90;;;;;;1904873;75;21091;-86
2023/10/17 00:19:49;;;;;;;4.85;1.75;;;11.20;99.90;;;;;;1904850;75;21103;-86
2023/10/17 00:22:42;;;;;;;3.02;1.70;;;11.10;99.90;;;;;;1905185;75;21209;-85
2023/10/17 00:25:33;;;;;;;3.50;1.85;;;11.10;99.90;;;;;;1905084;75;21091;-85
2023/10/17 00:28:25;;;;;;;2.58;1.67;;;11.10;99.90;;;;;;1904670;75;21103;-87
2023/10/17 00:31:20;;;;;;;3.17;1.70;;;11.20;99.90;;;;;;1904375;75;21126;-87
2023/10/17 00:34:14;;;;;;;3.00;1.70;;;11.20;99.90;;;;;;1903732;75;21067;-86
2023/10/17 00:37:10;;;;;;;3.45;1.80;;;11.10;99.90;;;;;;1903959;75;21131;-86
2023/10/17 00:40:26;;;;;;;2.83;1.80;;;11.10;99.90;;;;;;1903988;75;21131;-86
2023/10/17 00:42:54;;;;;;;4.00;1.90;;;11.00;99.90;;;;;;1904163;75;21091;-87
2023/10/17 00:45:47;;;;;;;3.15;2.08;;;11.00;99.90;;;;;;1904076;75;21095;-86
2023/10/17 00:48:40;;;;;;;4.42;2.08;;;11.00;99.90;;;;;;1904194;75;21127;-86
2023/10/17 00:51:32;;;;;;;4.42;2.20;;;11.00;99.90;;;;;;1904337;75;21566;-86
2023/10/17 00:54:25;;;;;;;3.77;2.10;;;11.00;99.90;;;;;;1904181;75;21136;-86
2023/10/17 00:57:17;;;;;;;3.40;1.92;;;10.90;99.90;;;;;;1904177;75;21124;-86
2023/10/17 01:00:22;;;;;;;4.35;2.30;;;10.90;99.90;;;;;;1904267;75;22144;-86
2023/10/17 01:03:10;;;;;;;2.70;1.80;;;10.80;99.90;;;;;;1904248;75;21152;-86
2023/10/17 01:06:13;;;;;;;5.60;2.27;;;10.90;99.90;;;;;;1904573;75;21059;-86
2023/10/17 01:09:17;;;;;;;4.78;2.15;;;10.80;99.90;;;;;;1904009;75;21374;-85
2023/10/17 01:12:08;;;;;;;3.20;2.22;;;10.80;99.90;;;;;;1904452;75;21152;-86
2023/10/17 01:14:55;;;;;;;2.33;1.82;;;10.80;99.90;;;;;;1904353;75;21225;-86
2023/10/17 01:17:46;;;;;;;3.87;2.08;;;10.80;99.90;;;;;;1904131;75;21313;-86
2023/10/17 01:20:38;;;;;;;2.98;2.10;;;10.80;99.90;;;;;;1904235;75;21121;-86
2023/10/17 01:23:29;;;;;;;4.42;2.27;;;10.90;99.90;;;;;;1902878;75;21118;-86
2023/10/17 01:26:23;;;;;;;4.10;2.05;;;10.90;99.90;;;;;;1903371;75;21099;-86
2023/10/17 01:29:15;;;;;;;3.87;2.20;;;10.90;99.90;;;;;;1903258;75;21469;-87
2023/10/17 01:32:09;;;;;;;3.60;1.87;;;10.80;99.90;;;;;;1904925;75;21152;-86
2023/10/17 01:35:00;;;;;;;4.22;2.00;;;10.80;99.90;;;;;;1904396;75;21147;-86
2023/10/17 01:37:53;;;;;;;3.25;1.95;;;10.70;99.90;;;;;;1904121;75;21107;-86
2023/10/17 01:40:47;;;;;;;3.05;2.10;;;10.70;99.90;;;;;;1906870;74;21583;-86
2023/10/17 01:43:41;;;;;;;2.90;1.85;;;10.70;99.90;;;;;;1905894;75;21140;-86
2023/10/17 01:46:33;;;;;;;3.67;1.80;;;10.70;99.90;;;;;;1904799;75;21057;-86
2023/10/17 01:49:27;;;;;;;3.25;1.67;;;10.70;99.90;;;;;;1909671;75;21128;-88
2023/10/17 01:52:18;;;;;;;4.10;1.72;;;10.70;99.90;;;;;;1907504;75;21192;-87
2023/10/17 01:55:13;;;;;;;3.45;1.75;;;10.70;99.90;;;;;;1908146;75;21183;-86
2023/10/17 01:58:07;;;;;;;3.33;2.00;;;10.70;99.90;;;;;;1905010;75;21075;-86
2023/10/17 02:00:58;;;;;;;2.55;1.85;;;10.70;99.90;;;;;;1903304;75;21102;-86
2023/10/17 02:03:49;;;;;;;5.62;1.90;;;10.70;99.90;;;;;;1903025;75;21051;-86
2023/10/17 02:06:42;;;;;;;3.92;2.00;;;10.70;99.90;;;;;;1903637;75;21114;-87
2023/10/17 02:09:46;;;;;;;2.60;1.77;;;10.60;99.90;;;;;;1903362;75;21088;-87
2023/10/17 02:12:41;;;;;;;2.90;1.80;;;10.60;99.90;;;;;;1902824;75;21041;-87
2023/10/17 02:15:31;;;;;;;3.80;1.92;;;10.50;99.90;;;;;;1905446;75;21136;-86
2023/10/17 02:18:23;;;;;;;3.17;2.00;;;10.60;99.90;;;;;;1902593;75;21124;-86
2023/10/17 02:21:15;;;;;;;3.47;1.80;;;10.60;99.90;;;;;;1904855;75;21220;-87
2023/10/17 02:24:08;;;;;;;5.95;2.35;;;10.60;99.90;;;;;;1909768;74;21159;-86
2023/10/17 02:27:00;;;;;;;5.17;1.80;;;10.70;99.90;;;;;;1907784;75;21117;-86
2023/10/17 02:29:53;;;;;;;2.75;1.85;;;10.70;99.90;;;;;;1907689;75;21177;-86
2023/10/17 02:32:51;;;;;;;2.70;1.95;;;10.60;99.90;;;;;;1907692;75;21153;-86
2023/10/17 02:35:39;;;;;;;2.65;1.98;;;10.60;99.90;;;;;;1907907;75;21180;-86
2023/10/17 02:38:31;;;;;;;3.75;2.20;;;10.50;99.90;;;;;;1910099;75;21091;-86
2023/10/17 02:41:22;;;;;;;4.00;2.30;;;10.60;99.90;;;;;;1911703;75;21185;-86
2023/10/17 02:44:18;;;;;;;4.53;1.98;;;10.60;99.90;;;;;;1908075;75;21055;-86
2023/10/17 02:47:07;;;;;;;3.22;1.90;;;10.60;99.90;;;;;;1909479;75;21102;-87
2023/10/17 02:49:58;;;;;;;3.62;2.00;;;10.50;99.90;;;;;;1911682;75;21294;-86
2023/10/17 02:52:51;;;;;;;3.22;1.95;;;10.50;99.90;;;;;;1908993;75;21086;-85
2023/10/17 02:55:44;;;;;;;4.42;1.92;;;10.50;99.90;;;;;;1910823;75;21140;-86
2023/10/17 02:58:35;;;;;;;2.45;1.87;;;10.40;99.90;;;;;;1911066;75;21173;-86
2023/10/17 03:01:27;;;;;;;2.22;1.50;;;10.40;99.90;;;;;;1910699;75;21109;-86
2023/10/17 03:04:23;;;;;;;3.62;1.80;;;10.30;99.90;;;;;;1908663;75;21103;-87
2023/10/17 03:07:12;;;;;;;4.83;1.67;;;10.40;99.90;;;;;;1907515;75;21102;-85
2023/10/17 03:10:04;;;;;;;2.37;1.70;;;10.30;99.90;;;;;;1909526;75;21084;-86
2023/10/17 03:13:00;;;;;;;4.67;1.87;;;10.30;99.90;;;;;;1909723;75;21185;-86
2023/10/17 03:15:49;;;;;;;3.20;1.77;;;10.30;99.90;;;;;;1907604;75;21147;-86
2023/10/17 03:18:45;;;;;;;2.98;1.50;;;10.20;99.90;;;;;;1907453;75;21172;-86
2023/10/17 03:21:35;;;;;;;2.27;1.85;;;10.20;99.90;;;;;;1907462;75;21172;-86
2023/10/17 03:24:38;;;;;;;3.62;1.72;;;10.20;99.90;;;;;;1905431;75;21156;-88
2023/10/17 03:27:27;;;;;;;2.47;1.95;;;10.20;99.90;;;;;;1908121;75;21665;-86
2023/10/17 03:30:20;;;;;;;3.27;1.60;;;10.20;99.90;;;;;;1904158;75;21131;-86
2023/10/17 03:33:14;;;;;;;2.77;1.80;;;10.20;99.90;;;;;;1904232;75;21119;-87
2023/10/17 03:36:06;;;;;;;2.70;1.80;;;10.20;99.90;;;;;;1906944;75;21321;-86
2023/10/17 03:39:17;;;;;;;4.37;1.60;;;10.20;99.90;;;;;;1907901;75;21119;-86
2023/10/17 03:41:56;;;;;;;3.80;1.85;;;10.20;99.90;;;;;;1907708;75;21083;-85
2023/10/17 03:44:45;;;;;;;3.58;1.80;;;10.20;99.90;;;;;;1907554;75;21111;-86
2023/10/17 03:47:36;;;;;;;2.92;1.62;;;10.30;99.90;;;;;;1903220;75;21151;-86
2023/10/17 03:50:34;;;;;;;;;;;10.30;99.90;;;;;;1906502;75;21103;-86
2023/10/17 03:53:32;;;;;;;3.33;1.55;;;10.30;99.90;;;;;;1904165;75;20160;-86
2023/10/17 03:56:26;;;;;;;4.58;1.95;;;10.30;99.90;;;;;;1903965;75;21098;-86
2023/10/17 03:59:26;;;;;;;3.20;1.87;;;10.40;99.90;;;;;;1904164;75;21107;-86
2023/10/17 04:02:17;;;;;;;3.42;1.70;;;10.30;99.90;;;;;;1904016;75;21453;-86
2023/10/17 04:05:10;;;;;;;2.65;1.85;;;10.30;99.90;;;;;;1903952;75;21653;-85
2023/10/17 04:08:00;;;;;;;2.67;1.57;;;10.20;99.90;;;;;;1904069;75;21172;-85
2023/10/17 04:11:07;;;;;;;3.05;1.80;;;10.10;99.90;;;;;;1904172;75;21127;-85
2023/10/17 04:13:44;;;;;;;2.85;1.70;;;10.00;99.90;;;;;;1904281;75;21055;-85
2023/10/17 04:16:39;;;;;;;4.12;1.70;;;10.00;99.90;;;;;;1903653;75;21119;-85
2023/10/17 04:19:32;;;;;;;4.08;2.02;;;10.10;99.90;;;;;;1903880;75;21123;-85
2023/10/17 04:22:26;;;;;;;5.15;2.55;;;10.20;99.90;;;;;;1904026;75;21147;-86
2023/10/17 04:25:34;;;;;;;8.00;4.03;;;10.10;99.90;;;;;;1904058;74;21126;-86
2023/10/17 04:28:26;;;;;;;7.85;3.70;;;10.10;99.90;;;;;;1904105;75;21084;-86
2023/10/17 04:31:25;;;;;;;8.28;4.90;;;10.10;99.90;;;;;;1904027;75;21130;-86
2023/10/17 04:34:21;;;;;;;5.40;2.98;;;10.20;99.90;;;;;;1904283;75;21124;-86
2023/10/17 04:37:16;;;;;;;4.00;2.20;;;10.30;99.90;;;;;;1903768;75;21173;-86
2023/10/17 04:43:44;;;;;;;2.67;2.10;;;10.30;99.90;;;;;;1903885;75;21092;-87
2023/10/17 04:46:49;;;;;;;4.17;2.25;;;10.30;99.90;;;;;;1903538;75;21132;-86
2023/10/17 04:49:35;;;;;;;5.15;2.40;;;10.30;99.90;;;;;;1902779;75;21193;-86
2023/10/17 04:52:40;;;;;;;4.20;2.20;;;10.30;99.90;;;;;;1902651;75;21095;-86
2023/10/17 04:55:40;;;;;;;4.00;1.80;;;10.30;99.90;;;;;;1902849;75;21078;-86
2023/10/17 04:58:31;;;;;;;3.20;2.05;;;10.20;99.90;;;;;;1902627;75;21063;-86
2023/10/17 05:01:39;;;;;;;5.03;3.60;;;10.10;99.90;;;;;;1902585;75;21107;-86
2023/10/17 05:04:33;;;;;;;3.70;2.12;;;10.20;99.90;;;;;;1902601;75;21107;-86
2023/10/17 05:07:30;;;;;;;6.72;2.40;;;10.10;99.90;;;;;;1902422;75;21156;-86
2023/10/17 06:17:22;;;;;;;8.53;3.00;;;9.80;99.90;;;;;;1916891;75;21157;-86
2023/10/17 06:20:17;;;;;;;3.85;3.08;;;9.80;99.90;;;;;;1917164;75;21051;-86
2023/10/17 06:23:24;;;;;;;8.25;2.83;;;9.90;99.90;;;;;;1906467;75;21127;-86
2023/10/17 06:33:03;;;;;;;6.50;3.33;;;10.00;99.90;;;;;;1916636;75;22207;-86
2023/10/17 06:35:52;;;;;;;8.33;3.75;;;10.00;99.90;;;;;;1904016;75;21591;-87
2023/10/17 06:38:48;;;;;;;8.38;3.27;;;10.00;99.90;;;;;;1916307;75;21197;-86
2023/10/17 06:41:39;;;;;;;5.53;3.17;;;10.00;99.90;;;;;;1916439;75;21117;-85
2023/10/17 06:44:31;;;;;;;7.47;3.27;;;10.00;99.90;;;;;;1916076;75;21203;-87
2023/10/17 06:47:30;;;;;;;6.83;3.52;;;10.10;99.90;;;;;;1915882;75;21187;-86
2023/10/17 06:53:34;;;;;;;6.83;3.20;;;10.20;99.90;;;;;;1903615;75;21141;-86
2023/10/17 06:56:27;;;;;;;5.53;3.20;;;10.20;99.90;;;;;;1903630;75;21083;-87
2023/10/17 06:59:33;;;;;;;4.42;2.95;;;10.30;99.90;;;;;;1916136;75;21070;-87
2023/10/17 07:02:27;;;;;;;8.13;3.62;;;10.30;99.90;;;;;;1903835;75;21212;-86
2023/10/17 07:05:14;;;;;;;6.80;3.45;;;10.30;99.90;;;;;;1915892;75;22230;-87
2023/10/17 07:08:13;;;;;;;4.75;3.08;;;10.40;99.90;;;;;;1915926;75;21561;-86
2023/10/17 07:11:09;;;;;;;6.70;3.40;;;10.50;99.90;;;;;;1903807;75;21052;-86
2023/10/17 07:14:22;;;;;;;8.23;3.80;;;10.60;99.90;;;;;;1916035;75;21099;-88
2023/10/17 07:17:17;;;;;;;7.58;3.37;;;10.60;99.90;;;;;;1903919;75;21140;-86
2023/10/17 07:20:12;;;;;;;8.10;3.60;;;10.70;99.90;;;;;;1916135;75;21118;-86
2023/10/17 07:22:57;;;;;;;6.08;3.15;;;10.70;99.90;;;;;;1903614;74;21153;-86
2023/10/17 07:25:50;;;;;;;5.37;3.00;;;10.80;99.90;;;;;;1916217;75;21253;-86
2023/10/17 07:28:43;;;;;;;6.40;3.20;;;10.90;99.90;;;;;;1916129;75;21312;-86
2023/10/17 07:31:36;;;;;;;5.15;3.12;;;11.00;99.90;;;;;;1903664;75;21097;-86
2023/10/17 07:34:34;;;;;;;5.03;2.98;;;11.00;99.90;;;;;;1903781;75;21099;-86
2023/10/17 07:37:26;;;;;;;6.72;3.37;;;11.00;99.90;;;;;;1903431;75;21103;-86
2023/10/17 07:40:22;;;;;;;5.90;2.98;;;11.00;99.90;;;;;;1903618;75;21099;-86
2023/10/17 07:43:11;;;;;;;3.77;2.70;;;11.10;99.90;;;;;;1915993;75;21171;-86
2023/10/17 07:46:07;;;;;;;7.05;3.00;;;11.20;99.90;;;;;;1916107;75;21123;-86
2023/10/17 07:49:04;;;;;;;6.10;3.50;;;11.30;99.90;;;;;;1916054;75;21550;-87
2023/10/17 07:51:58;;;;;;;6.60;2.90;;;11.30;99.90;;;;;;1915639;75;21122;-86
2023/10/17 07:54:57;;;;;;;7.70;4.28;;;11.40;99.90;;;;;;1915967;75;21507;-87
2023/10/17 07:58:06;;;;;;;6.22;3.95;;;11.40;99.90;;;;;;1916145;75;21216;-87
2023/10/17 08:00:50;;;;;;;5.42;3.42;;;11.40;99.90;;;;;;1903837;75;21115;-86
2023/10/17 08:03:49;;;;;;;6.28;3.65;;;11.50;99.90;;;;;;1904533;75;21185;-86
2023/10/17 08:06:36;;;;;;;7.15;3.30;;;11.50;99.90;;;;;;1916128;75;21071;-87
2023/10/17 08:09:36;;;;;;;4.58;2.80;;;11.50;99.90;;;;;;1915917;75;21091;-86
2023/10/17 08:12:29;;;;;;;4.25;2.62;;;11.50;99.90;;;;;;1903992;75;21056;-86
2023/10/17 08:15:22;;;;;;;4.53;3.20;;;11.60;99.90;;;;;;1903593;75;21107;-86
2023/10/17 08:18:15;;;;;;;4.25;2.87;;;11.70;99.90;;;;;;1903575;75;21056;-86
2023/10/17 08:24:26;;;;;;;9.90;3.20;;;11.70;99.90;;;;;;1900673;74;21185;-86
2023/10/17 08:27:41;;;;;;;5.30;2.98;;;11.70;99.90;;;;;;1916297;75;21107;-86
2023/10/17 08:30:16;;;;;;;4.42;2.92;;;11.80;99.90;;;;;;1903949;75;21126;-86
2023/10/17 08:33:12;;;;;;;8.50;3.20;;;12.00;99.90;;;;;;1915952;75;21270;-88
2023/10/17 08:36:05;;;;;;;5.62;2.95;;;12.10;99.90;;;;;;1903349;75;21169;-86
2023/10/17 08:38:59;;;;;;;3.30;2.65;;;12.30;99.90;;;;;;1903072;75;21088;-87
2023/10/17 08:41:53;;;;;;;5.87;3.50;;;12.50;99.90;;;;;;1915549;75;21134;-87
2023/10/17 08:44:49;;;;;;;6.15;3.77;;;12.60;99.90;;;;;;1915663;75;21103;-86
2023/10/17 08:47:42;;;;;;;5.30;3.87;;;12.80;99.90;;;;;;1915782;75;21091;-86
2023/10/17 08:50:37;;;;;;;8.93;3.42;;;12.90;99.90;;;;;;1902569;75;21616;-87
2023/10/17 08:53:30;;;;;;;4.20;3.65;;;13.10;99.90;;;;;;1915384;75;21141;-86
2023/10/17 08:56:21;;;;;;;4.55;2.47;;;13.20;99.90;;;;;;1903130;75;21143;-87
2023/10/17 08:59:15;;;;;;;5.47;2.70;;;13.30;99.90;;;;;;1903758;75;21144;-87
2023/10/17 09:04:50;;;;;;;4.60;2.75;;;13.50;99.90;;;;;;1975214;72;22182;-87
2023/10/17 09:07:44;;;;;;;7.33;2.80;;;13.50;99.90;;;;;;1950031;73;21335;-87
2023/10/17 09:10:37;;;;;;;5.35;3.02;;;13.60;99.90;;;;;;1949748;73;21203;-86
2023/10/17 09:14:08;;;;;;;4.28;2.50;;;13.60;99.90;;;;;;1950159;73;21156;-86
2023/10/17 09:16:41;;;;;;;5.22;2.72;;;13.70;99.90;;;;;;1950335;73;21149;-87
2023/10/17 09:19:31;;;;;;;4.67;2.60;;;13.70;99.90;;;;;;1950592;73;21059;-86
2023/10/17 09:22:40;;;;;;;3.98;2.62;;;13.70;99.90;;;;;;1950555;73;21203;-87
2023/10/17 09:25:32;;;;;;;6.28;3.00;;;13.80;99.90;;;;;;1950420;73;21118;-86
2023/10/17 09:28:25;;;;;;;5.92;2.80;;;13.90;99.90;;;;;;1950733;73;21131;-86
2023/10/17 09:31:17;;;;;;;4.67;3.02;;;14.00;99.90;;;;;;1950343;73;21098;-86
2023/10/17 09:34:10;;;;;;;6.65;2.85;;;14.10;99.90;;;;;;1950600;73;21063;-86
2023/10/17 09:37:05;;;;;;;6.12;3.20;;;14.20;99.90;;;;;;1950217;73;21585;-86
2023/10/17 09:40:00;;;;;;;5.10;2.95;;;14.20;99.90;;;;;;1950615;73;21167;-86
2023/10/17 09:42:54;;;;;;;6.25;3.30;;;14.20;99.90;;;;;;1950725;73;21094;-86
2023/10/17 09:45:47;;;;;;;4.10;2.90;;;14.30;99.90;;;;;;1950600;73;21055;-86
2023/10/17 09:48:42;;;;;;;5.50;2.98;;;14.40;99.90;;;;;;1950320;73;21153;-86
2023/10/17 09:51:36;;;;;;;4.90;2.27;;;14.50;99.90;;;;;;1950588;73;21142;-87
2023/10/17 09:54:31;;;;;;;4.35;2.85;;;14.50;99.90;;;;;;1950609;73;21160;-86
2023/10/17 09:57:25;;;;;;;5.22;3.12;;;14.60;99.90;;;;;;1950597;73;21577;-86
2023/10/17 10:00:25;;;;;;;7.92;4.08;;;14.70;99.90;;;;;;1950519;73;21674;-86
2023/10/17 10:03:18;;;;;;;5.20;2.62;;;14.80;99.90;;;;;;1950171;73;21215;-86
2023/10/17 10:06:25;;;;;;;5.67;2.67;;;14.90;99.90;;;;;;1950453;73;21167;-86
2023/10/17 10:09:27;;;;;;;8.50;3.75;;;15.00;99.90;;;;;;1950698;73;21170;-86
2023/10/17 10:12:20;;;;;;;6.33;3.08;;;15.10;99.90;;;;;;1950564;73;21526;-86
2023/10/17 10:15:28;;;;;;;5.97;2.95;;;15.20;99.90;;;;;;1950048;73;21102;-86
2023/10/17 10:18:20;;;;;;;4.97;2.65;;;15.30;99.90;;;;;;1949950;73;21056;-86
2023/10/17 10:21:12;;;;;;;4.40;3.10;;;15.30;99.90;;;;;;1949657;73;21114;-88
2023/10/17 10:24:06;;;;;;;5.28;3.20;;;15.40;99.90;;;;;;1950112;73;21102;-85
2023/10/17 10:27:24;;;;;;;4.30;2.52;;;15.50;99.90;;;;;;1950008;73;21118;-86
2023/10/17 10:30:40;;;;;;;4.85;2.37;;;15.50;99.90;;;;;;1949932;73;21115;-86
2023/10/17 10:33:31;;;;;;;6.17;3.00;;;15.50;99.90;;;;;;1949851;73;21076;-86
2023/10/17 10:36:26;;;;;;;5.85;2.35;;;15.60;99.90;;;;;;1949785;73;21108;-86
2023/10/17 10:39:18;;;;;;;4.45;2.72;;;15.60;99.90;;;;;;1949688;73;21579;-86
2023/10/17 10:42:10;;;;;;;7.72;2.60;;;15.80;99.90;;;;;;1949501;73;21125;-87
2023/10/17 10:45:01;;;;;;;5.55;2.60;;;15.90;99.90;;;;;;1949642;73;21106;-87
2023/10/17 10:47:57;;;;;;;8.00;2.60;;;16.00;99.90;;;;;;1949506;73;21164;-86
2023/10/17 10:50:48;;;;;;;3.85;2.15;;;16.00;99.90;;;;;;1949876;73;21113;-86
2023/10/17 10:53:40;;;;;;;6.67;3.30;;;15.90;99.90;;;;;;1949579;73;21059;-86
2023/10/17 10:56:32;;;;;;;4.70;2.90;;;16.00;99.90;;;;;;1950003;73;21103;-87
2023/10/17 10:59:25;;;;;;;8.28;2.87;;;16.10;99.90;;;;;;1949859;73;21168;-87
2023/10/17 11:02:20;;;;;;;4.65;2.80;;;16.10;99.90;;;;;;1950125;73;21197;-86
2023/10/17 11:05:14;;;;;;;4.50;2.72;;;16.20;99.90;;;;;;1950020;73;21581;-86
2023/10/17 11:08:05;;;;;;;5.25;2.90;;;16.30;99.90;;;;;;1937123;74;21161;-86
2023/10/17 11:11:03;;;;;;;4.25;1.75;;;16.40;99.90;;;;;;1949974;73;21093;-87
2023/10/17 11:13:54;;;;;;;;;;;16.40;99.90;;;;;;1939581;74;21164;-87
2023/10/17 11:16:50;;;;;;;5.25;2.45;;;16.40;99.90;;;;;;1936737;74;20282;-86
2023/10/17 11:19:41;;;;;;;6.53;3.00;;;16.40;99.90;;;;;;1936675;74;21164;-86
2023/10/17 11:22:37;;;;;;;7.15;2.27;;;16.40;99.90;;;;;;1949296;73;21102;-86
2023/10/17 11:25:31;;;;;;;3.60;2.20;;;16.50;99.90;;;;;;1949631;73;21161;-87
2023/10/17 11:28:23;;;;;;;5.50;2.10;;;16.60;99.90;;;;;;1949858;73;21082;-86
2023/10/17 11:31:21;;;;;;;3.33;2.12;;;16.60;99.90;;;;;;1936891;74;21167;-87
2023/10/17 11:34:12;;;;;;;3.58;1.77;;;16.70;99.90;;;;;;1949750;73;21229;-88
2023/10/17 11:37:11;;;;;;;2.50;1.57;;;16.80;99.90;;;;;;1949707;73;21143;-87
2023/10/17 11:40:16;;;;;;;5.45;1.72;;;16.90;99.90;;;;;;1950157;73;21163;-87
2023/10/17 11:42:53;;;;;;;3.20;1.67;;;17.10;99.90;;;;;;1937021;74;21365;-87
2023/10/17 11:45:45;;;;;;;7.05;2.20;;;17.10;99.90;;;;;;1935327;74;21143;-87
2023/10/17 11:48:40;;;;;;;5.47;2.20;;;17.30;99.90;;;;;;1903048;75;21382;-86
2023/10/17 11:51:30;;;;;;;3.90;2.00;;;17.40;99.90;;;;;;1903755;75;21189;-86
2023/10/17 11:54:22;;;;;;;3.60;1.70;;;17.60;99.90;;;;;;1903635;75;21076;-87
2023/10/17 11:57:16;;;;;;;5.65;2.10;;;17.70;99.90;;;;;;1915782;75;21123;-87
2023/10/17 12:00:20;;;;;;;3.92;2.10;;;17.80;99.90;;;;;;1916059;75;21119;-87
2023/10/17 12:03:12;;;;;;;2.87;1.65;;;17.90;99.90;;;;;;1916021;75;21110;-86
2023/10/17 12:06:06;;;;;;;2.65;1.85;;;18.00;99.90;;;;;;1922881;74;21188;-86
2023/10/17 12:08:58;;;;;;;2.83;1.65;;;18.10;99.90;;;;;;1932421;74;21239;-87
2023/10/17 12:11:51;;;;;;;1.77;1.22;;;18.10;99.90;;;;;;1932162;74;21591;-86
2023/10/17 12:14:42;;;;;;;3.62;1.90;;;18.10;99.90;;;;;;1931991;74;21098;-86
2023/10/17 12:17:41;;;;;;;1.98;1.50;;;18.10;99.90;;;;;;1931998;74;21030;-86
2023/10/17 12:20:33;;;;;;;2.75;1.50;;;18.30;99.90;;;;;;1932395;74;21150;-86
2023/10/17 12:23:29;;;;;;;2.33;1.57;;;18.40;99.90;;;;;;1932324;74;21114;-86
2023/10/17 12:26:19;;;;;;;4.40;1.90;;;18.60;99.90;;;;;;1932178;74;21154;-86
2023/10/17 12:29:11;;;;;;;5.95;1.60;;;18.80;99.90;;;;;;1931939;74;21051;-86
2023/10/17 12:32:04;;;;;;;3.33;1.67;;;18.90;99.90;;;;;;1931852;74;21533;-87
2023/10/17 12:34:57;;;;;;;4.42;1.62;;;18.90;99.90;;;;;;1932046;74;21234;-87
2023/10/17 12:37:51;;;;;;;2.05;1.50;;;18.90;99.90;;;;;;1932138;74;21172;-86
2023/10/17 12:40:43;;;;;;;5.03;1.62;;;19.00;99.90;;;;;;1932100;74;21086;-86
2023/10/17 12:43:36;;;;;;;3.00;1.80;;;19.00;99.90;;;;;;1931922;74;21054;-86
2023/10/17 12:46:28;;;;;;;4.60;1.60;;;18.90;99.90;;;;;;1930345;74;21159;-87
2023/10/17 12:49:21;;;;;;;6.37;1.72;;;18.90;99.90;;;;;;1926559;74;21164;-87
2023/10/17 12:52:16;;;;;;;3.98;1.60;;;19.20;99.90;;;;;;1926140;74;21094;-87
2023/10/17 12:55:09;;;;;;;3.15;1.60;;;19.40;99.90;;;;;;1926286;74;21106;-86
2023/10/17 12:58:00;;;;;;;3.83;1.67;;;19.50;99.90;;;;;;1926478;74;21553;-87
2023/10/17 13:00:52;;;;;;;4.65;2.05;;;19.40;99.90;;;;;;1927167;74;21130;-88
2023/10/17 13:03:44;;;;;;;6.87;1.70;;;19.50;99.90;;;;;;1926944;74;21171;-87
2023/10/17 13:06:37;;;;;;;5.42;1.90;;;19.70;99.90;;;;;;1923023;74;21115;-87
2023/10/17 13:09:32;;;;;;;2.87;1.70;;;19.90;99.90;;;;;;1911507;75;21099;-86
2023/10/17 13:12:21;;;;;;;4.53;1.87;;;20.00;99.90;;;;;;1911828;75;21075;-87
2023/10/17 13:15:15;;;;;;;3.72;1.77;;;20.10;99.90;;;;;;1911708;75;21163;-86
2023/10/17 13:18:10;;;;;;;3.22;1.82;;;20.10;99.90;;;;;;1911769;75;21099;-86
2023/10/17 13:21:12;;;;;;;5.72;2.00;;;20.20;99.90;;;;;;1911507;75;21094;-86
2023/10/17 13:23:58;;;;;;;2.65;1.70;;;20.20;99.90;;;;;;1911915;75;21215;-86
2023/10/17 13:26:51;;;;;;;3.50;1.80;;;20.20;99.90;;;;;;1911546;75;21106;-87
2023/10/17 13:29:44;;;;;;;3.65;1.98;;;20.30;99.90;;;;;;1911859;75;21278;-86
2023/10/17 13:32:35;;;;;;;2.77;1.60;;;20.50;99.90;;;;;;1911180;75;21087;-86
2023/10/17 13:35:28;;;;;;;3.83;1.80;;;20.70;99.90;;;;;;1910913;75;21126;-87
2023/10/17 13:38:20;;;;;;;5.10;2.20;;;20.60;99.90;;;;;;1911240;75;21188;-87
2023/10/17 13:41:15;;;;;;;8.40;4.15;;;20.60;99.90;;;;;;1911326;75;21102;-86
2023/10/17 13:44:08;;;;;;;4.45;2.10;;;20.40;99.90;;;;;;1911361;75;21098;-86
2023/10/17 13:46:59;;;;;;;5.17;1.77;;;20.40;99.90;;;;;;1911412;75;21168;-87
2023/10/17 13:49:51;;;;;;;2.50;1.65;;;20.40;99.90;;;;;;1911641;75;21055;-87
2023/10/17 13:52:42;;;;;;;6.80;2.30;;;20.50;99.90;;;;;;1911572;75;21164;-86
2023/10/17 13:55:38;;;;;;;2.30;1.55;;;20.50;99.90;;;;;;1911741;75;21633;-86
2023/10/17 13:58:30;;;;;;;3.25;1.52;;;20.50;99.90;;;;;;1911713;75;21098;-87
2023/10/17 14:01:32;;;;;;;2.02;1.50;;;20.50;99.90;;;;;;1911907;75;21107;-87
2023/10/17 14:04:25;;;;;;;5.22;1.62;;;20.60;99.90;;;;;;1911805;75;21225;-87
2023/10/17 14:07:18;;;;;;;5.33;1.75;;;20.70;99.90;;;;;;1912938;74;21191;-87
2023/10/17 14:10:12;;;;;;;3.95;2.00;;;20.80;99.90;;;;;;1919828;75;21121;-87
2023/10/17 14:13:08;;;;;;;4.30;1.50;;;20.70;99.90;;;;;;1920002;75;21158;-87
2023/10/17 14:15:57;;;;;;;3.08;1.50;;;20.60;99.90;;;;;;1920257;75;21210;-88
2023/10/17 14:19:02;;;;;;;1.90;1.32;;;20.40;99.90;;;;;;1920216;75;21549;-87
2023/10/17 14:21:47;;;;;;;3.08;1.60;;;20.40;99.90;;;;;;1920008;75;21106;-87
2023/10/17 14:25:00;;;;;;;5.25;1.40;;;20.40;99.90;;;;;;1920177;75;21591;-87
2023/10/17 14:27:43;;;;;;;2.47;1.50;;;20.40;99.90;;;;;;1920153;75;21176;-86
2023/10/17 14:30:40;;;;;;;2.62;1.50;;;20.40;99.90;;;;;;1920288;75;21055;-86
2023/10/17 14:33:32;;;;;;;4.87;1.75;;;20.30;99.90;;;;;;1920170;75;21092;-86
2023/10/17 14:36:24;;;;;;;3.62;1.62;;;20.20;99.90;;;;;;1920063;75;21106;-86
2023/10/17 14:39:20;;;;;;;2.67;1.60;;;20.10;99.90;;;;;;1920049;75;21070;-86
2023/10/17 14:42:10;;;;;;;3.25;1.35;;;20.10;99.90;;;;;;1919790;75;21106;-86
2023/10/17 14:45:03;;;;;;;2.08;1.72;;;20.10;99.90;;;;;;1919962;75;21124;-86
2023/10/17 14:47:55;;;;;;;3.02;1.67;;;20.10;99.90;;;;;;1920928;75;21107;-87
2023/10/17 14:50:47;;;;;;;3.12;1.70;;;20.00;99.90;;;;;;1919966;75;21162;-87
2023/10/17 14:53:38;;;;;;;2.77;1.50;;;20.00;99.90;;;;;;1919617;75;21090;-87
2023/10/17 14:56:31;;;;;;;3.05;1.62;;;19.90;99.90;;;;;;1919697;75;21314;-88
2023/10/17 14:59:23;;;;;;;3.72;1.60;;;19.70;99.90;;;;;;1919778;75;21565;-86
2023/10/17 15:02:15;;;;;;;3.65;1.35;;;19.40;99.90;;;;;;1920033;75;21091;-86
2023/10/17 15:05:11;;;;;;;5.20;1.70;;;19.30;99.90;;;;;;1919785;75;21098;-87
2023/10/17 15:08:03;;;;;;;9.00;2.00;;;19.20;99.90;;;;;;1919290;75;21179;-87
2023/10/17 15:10:55;;;;;;;5.28;1.55;;;19.00;99.90;;;;;;1911464;75;21111;-87
2023/10/17 15:13:46;;;;;;;3.90;1.80;;;18.90;99.90;;;;;;1912031;75;21577;-88
2023/10/17 15:16:38;;;;;;;2.77;1.65;;;18.80;99.90;;;;;;1911703;75;21164;-87
2023/10/17 15:19:29;;;;;;;5.80;1.75;;;18.70;99.90;;;;;;1911742;75;21196;-87
2023/10/17 15:22:21;;;;;;;3.40;1.90;;;18.60;99.90;;;;;;1911876;75;21578;-87
2023/10/17 15:25:13;;;;;;;2.90;1.80;;;18.60;99.90;;;;;;1912097;75;21102;-87
2023/10/17 15:28:06;;;;;;;4.33;1.60;;;18.50;99.90;;;;;;1911650;75;21151;-86
2023/10/17 15:31:04;;;;;;;5.70;1.90;;;18.60;99.90;;;;;;1911528;75;21188;-86
2023/10/17 15:33:57;;;;;;;4.83;2.05;;;18.60;99.90;;;;;;1911300;75;21147;-87
2023/10/17 15:36:48;;;;;;;4.53;1.80;;;18.70;99.90;;;;;;1911665;75;21091;-86
2023/10/17 15:39:40;;;;;;;5.58;1.98;;;18.80;99.90;;;;;;1911627;75;21094;-86
2023/10/17 15:42:31;;;;;;;6.20;1.75;;;18.80;99.90;;;;;;1911578;75;21463;-87
2023/10/17 15:45:22;;;;;;;3.70;1.67;;;18.80;99.90;;;;;;1911583;75;21094;-86
2023/10/17 15:48:14;;;;;;;4.08;1.80;;;18.70;99.90;;;;;;1889956;76;21116;-87
2023/10/17 15:51:06;;;;;;;5.60;1.72;;;18.70;99.90;;;;;;1844890;78;21108;-87
2023/10/17 15:53:58;;;;;;;4.40;1.87;;;18.60;99.90;;;;;;1880429;76;21127;-87
2023/10/17 15:56:49;;;;;;;7.70;1.87;;;18.60;99.90;;;;;;1880459;76;21145;-86
2023/10/17 15:59:41;;;;;;;5.12;1.70;;;18.50;99.90;;;;;;1880158;76;21477;-87
2023/10/17 16:02:32;;;;;;;2.75;1.70;;;18.50;99.90;;;;;;1880155;76;21556;-87
2023/10/17 16:05:24;;;;;;;5.60;1.90;;;18.50;99.90;;;;;;1884116;74;21124;-87
2023/10/17 16:08:17;;;;;;;4.85;1.50;;;18.50;99.90;;;;;;1946690;74;21571;-87
2023/10/17 16:11:09;;;;;;;4.15;1.70;;;18.40;99.90;;;;;;1900336;75;21126;-87
2023/10/17 16:14:03;;;;;;;3.22;1.72;;;18.40;99.90;;;;;;1901455;75;21059;-87
2023/10/17 16:16:54;;;;;;;3.17;1.70;;;18.40;99.90;;;;;;1933631;74;21173;-87
2023/10/17 16:19:46;;;;;;;3.95;2.00;;;18.40;99.90;;;;;;1934783;74;21210;-87
2023/10/17 16:22:38;;;;;;;5.42;2.10;;;18.30;99.90;;;;;;1934728;74;21098;-87
2023/10/17 16:25:32;;;;;;;4.55;2.10;;;18.30;99.90;;;;;;1934867;74;21157;-87
2023/10/17 16:28:23;;;;;;;5.17;1.95;;;18.30;99.90;;;;;;1934716;74;21135;-87
2023/10/17 16:31:19;;;;;;;11.28;2.15;;;18.20;99.90;;;;;;1934893;74;21048;-88
2023/10/17 16:36:54;;;;;;;3.15;1.92;;;18.20;99.90;;;;;;1956999;72;22170;-87